Overview Statistics Trail Chart Weather Telemetry Raw packets
 

This is the latest recevied weather packets stored in our database for station/object KY4OP-13. If no packets are shown the sender has not sent any weather packets the latest 10 day(s).

<< 107 108 109 110 111 112 113 >>
Time Temp. Humidity Pressure Rain* Wind** Luminosity Snow
1787786697 24.44° C 83% 1018 hPa 0 mm - - -
1787786396 24.44° C 82% 1018.2 hPa 0 mm - - -
1787786092 25.56° C 80% 1018.1 hPa 0 mm - - -
1787785782 25.56° C 79% 1018.3 hPa 0 mm - - -
1787785478 26.11° C 78% 1018.3 hPa 0 mm - - -
1787785176 26.67° C 76% 1018.2 hPa 0 mm - - -
1787784872 26.67° C 76% 1018.2 hPa 0 mm - - -
1787784571 26.67° C 77% 1018.3 hPa 0 mm - - -
1787784265 26.67° C 75% 1018.3 hPa 0 mm - - -
1787783961 26.67° C 74% 1018.3 hPa 0 mm - - -
1787783656 26.67° C 76% 1018.4 hPa 0 mm - - -
1787783356 26.67° C 76% 1018.4 hPa 0 mm - - -
1787783052 26.67° C 74% 1018.6 hPa 0 mm - - -
1787782751 27.22° C 72% 1018.5 hPa 0 mm - - -
1787782447 27.78° C 70% 1018.6 hPa 0 mm - - -
1787782147 28.33° C 69% 1018.7 hPa 0 mm - - -
1787781842 28.89° C 67% 1018.9 hPa 0 mm - - -
1787781540 29.44° C 67% 1018.8 hPa 0 mm - - -
1787781240 28.89° C 66% 1018.8 hPa 0 mm - - -
1787780937 28.89° C 68% 1018.9 hPa 0 mm - - -
1787780632 28.89° C 68% 1019 hPa 0 mm - - -
1787780327 28.33° C 67% 1018.8 hPa 0 mm - - -
1787780023 28.89° C 65% 1019.1 hPa 0 mm - - -
1787779719 29.44° C 63% 1019.1 hPa 0 mm - - -
1787779417 28.89° C 66% 1019.2 hPa 0 mm - - -

* Rain latest hour (hover to see other rain measurements)
** Current wind speed in m/s (hover to see current wind gust speed)